AIRPORT_AIRPORT_METAR
METAR FOR LSGC
ADDS - METARS form results

(0109 UTC 06 December 2019)
Data provider http://aviationweather.gov/metar/data/
 
METAR text: LSGC 060050Z AUTO 24004KT CAVOK M02/M07 Q1021
Conditions at: LSGC (LES EPLATURES , CH) observed 0050 UTC 06 December 2019
Temperature: -2.0°C (28°F)
Dewpoint: -7.0°C (19°F) [RH = 69%]
Pressure (altimeter): 30.15 inches Hg (1021.0 mb)
Winds: from the WSW (240 degrees) at 5 MPH (4 knots; 2.1 m/s)
Visibility: 6 or more miles (10+ km)
Ceiling: ceiling and visibility are OK
Clouds: unknown
Weather: no significant weather observed at this time

METAR text: LSGC 060020Z AUTO 24005KT CAVOK M00/M08 Q1021
Conditions at: LSGC (LES EPLATURES , CH) observed 0020 UTC 06 December 2019
Temperature: 0.0°C (32°F)
Dewpoint: -8.0°C (18°F) [RH = 55%]
Pressure (altimeter): 30.15 inches Hg (1021.0 mb)
Winds: from the WSW (240 degrees) at 6 MPH (5 knots; 2.6 m/s)
Visibility: 6 or more miles (10+ km)
Ceiling: ceiling and visibility are OK
Clouds: unknown
Weather: no significant weather observed at this time

Forecast for: LSGC (LES EPLATURES , CH)
Text: TAF LSGC 051425Z 0515/0524 23003KT CAVOK
Forecast period: 1500 UTC 05 December 2019 to 0000 UTC 06 December 2019
Forecast type: FROM: standard forecast or significant change
Winds: from the SW (230 degrees) at 3 MPH (3 knots; 1.5 m/s)
Visibility: 6 or more miles 10+ km)
Ceiling: unknown
Clouds: missing
Weather: NSW  (no significant weather)

 AIRPORT_AIRPORT_MAP

 AIRPORT_RUNWAY_INFO
AIRPORT_RUNWAY 06 AIRPORT_RUNWAY_LENGTH 3707 ft AIRPORT_RUNWAY_WIDTH 89 ft
AIRPORT_RUNWAY_ELEVATION 3368 ft AIRPORT_RUNWAY_THRESHOLD 230 ft AIRPORT_RUNWAY_HEADING 54
AIRPORT_RUNWAY 24 AIRPORT_RUNWAY_LENGTH 3707 ft AIRPORT_RUNWAY_WIDTH 89 ft
AIRPORT_RUNWAY_ELEVATION 3343 ft AIRPORT_RUNWAY_THRESHOLD 328 ft AIRPORT_RUNWAY_HEADING 234

 AIRPORT_AIRPORT_FREQUENCIES
AIRPORT_AIRPORT_NAVAIDS_TYPE TWR AIRPORT_AIRPORT_NAVAIDS_NAME TWR AIRPORT_AIRPORT_NAVAIDS_FREQ 118.125 MHZ

 AIRPORT_AIRPORT_NAVAIDS
AIRPORT_AIRPORT_NAVAIDS_TYPE NDB AIRPORT_AIRPORT_NAVAIDS_NAME Les Eplatures AIRPORT_AIRPORT_NAVAIDS_FREQ 403 KHZ



Copyright © 2005-2019 - Virtuel Air Alsace - Tous droits réservés